sensor_id;sensor_type;location;lat;lon;timestamp;temperature;humidity
45233;DHT22;30969;51.052;17.056;2022-08-19T00:04:48;30.70;39.10
45233;DHT22;30969;51.052;17.056;2022-08-19T00:09:54;30.50;39.20
45233;DHT22;30969;51.052;17.056;2022-08-19T00:14:58;30.50;39.50
45233;DHT22;30969;51.052;17.056;2022-08-19T00:20:03;30.40;40.10
45233;DHT22;30969;51.052;17.056;2022-08-19T00:25:08;30.20;40.60
45233;DHT22;30969;51.052;17.056;2022-08-19T00:30:12;30.00;41.00
45233;DHT22;30969;51.052;17.056;2022-08-19T00:35:17;29.80;41.30
45233;DHT22;30969;51.052;17.056;2022-08-19T00:40:21;29.70;41.70
45233;DHT22;30969;51.052;17.056;2022-08-19T00:45:27;29.50;42.00
45233;DHT22;30969;51.052;17.056;2022-08-19T00:50:35;29.40;42.30
45233;DHT22;30969;51.052;17.056;2022-08-19T00:55:56;29.30;42.40
45233;DHT22;30969;51.052;17.056;2022-08-19T01:01:00;29.20;43.20
45233;DHT22;30969;51.052;17.056;2022-08-19T01:06:06;29.10;43.50
45233;DHT22;30969;51.052;17.056;2022-08-19T01:11:10;29.10;44.30
45233;DHT22;30969;51.052;17.056;2022-08-19T01:16:14;29.10;44.10
45233;DHT22;30969;51.052;17.056;2022-08-19T01:21:22;29.10;44.70
45233;DHT22;30969;51.052;17.056;2022-08-19T01:26:28;29.10;44.50
45233;DHT22;30969;51.052;17.056;2022-08-19T01:31:34;29.10;45.00
45233;DHT22;30969;51.052;17.056;2022-08-19T01:36:41;29.10;44.70
45233;DHT22;30969;51.052;17.056;2022-08-19T01:41:49;29.10;44.70
45233;DHT22;30969;51.052;17.056;2022-08-19T01:46:52;29.00;44.70
45233;DHT22;30969;51.052;17.056;2022-08-19T01:51:56;28.90;44.80
45233;DHT22;30969;51.052;17.056;2022-08-19T01:57:07;28.80;44.70
45233;DHT22;30969;51.052;17.056;2022-08-19T02:02:11;28.80;45.20
45233;DHT22;30969;51.052;17.056;2022-08-19T02:07:18;28.70;45.10
45233;DHT22;30969;51.052;17.056;2022-08-19T02:12:22;28.60;45.00
45233;DHT22;30969;51.052;17.056;2022-08-19T02:17:26;28.60;45.20
45233;DHT22;30969;51.052;17.056;2022-08-19T02:22:30;28.50;47.00
45233;DHT22;30969;51.052;17.056;2022-08-19T02:27:35;28.40;46.30
45233;DHT22;30969;51.052;17.056;2022-08-19T02:32:39;28.30;46.20
45233;DHT22;30969;51.052;17.056;2022-08-19T02:37:55;28.10;46.50
45233;DHT22;30969;51.052;17.056;2022-08-19T02:43:18;28.00;46.90
45233;DHT22;30969;51.052;17.056;2022-08-19T02:48:25;27.90;47.20
45233;DHT22;30969;51.052;17.056;2022-08-19T02:53:28;27.80;47.10
45233;DHT22;30969;51.052;17.056;2022-08-19T02:58:33;27.70;48.90
45233;DHT22;30969;51.052;17.056;2022-08-19T03:03:39;27.60;48.00
45233;DHT22;30969;51.052;17.056;2022-08-19T03:08:44;27.60;48.00
45233;DHT22;30969;51.052;17.056;2022-08-19T03:13:50;27.50;48.20
45233;DHT22;30969;51.052;17.056;2022-08-19T03:18:55;27.50;48.20
45233;DHT22;30969;51.052;17.056;2022-08-19T03:24:05;27.50;48.20
45233;DHT22;30969;51.052;17.056;2022-08-19T03:29:11;27.40;48.10
45233;DHT22;30969;51.052;17.056;2022-08-19T03:34:17;27.40;48.20
45233;DHT22;30969;51.052;17.056;2022-08-19T03:39:23;27.40;49.20
45233;DHT22;30969;51.052;17.056;2022-08-19T03:44:29;27.40;48.20
45233;DHT22;30969;51.052;17.056;2022-08-19T03:49:34;27.30;48.20
45233;DHT22;30969;51.052;17.056;2022-08-19T03:54:38;27.30;48.10
45233;DHT22;30969;51.052;17.056;2022-08-19T03:59:43;27.30;48.60
45233;DHT22;30969;51.052;17.056;2022-08-19T04:04:47;27.30;48.60
45233;DHT22;30969;51.052;17.056;2022-08-19T04:09:50;27.20;48.60
45233;DHT22;30969;51.052;17.056;2022-08-19T04:14:56;27.20;48.80
45233;DHT22;30969;51.052;17.056;2022-08-19T04:20:00;27.20;48.90
45233;DHT22;30969;51.052;17.056;2022-08-19T04:25:09;27.10;49.20
45233;DHT22;30969;51.052;17.056;2022-08-19T04:30:14;27.10;49.40
45233;DHT22;30969;51.052;17.056;2022-08-19T04:35:19;27.10;49.60
45233;DHT22;30969;51.052;17.056;2022-08-19T04:40:26;27.10;49.90
45233;DHT22;30969;51.052;17.056;2022-08-19T04:45:48;27.00;50.00
45233;DHT22;30969;51.052;17.056;2022-08-19T04:50:58;27.00;51.40
45233;DHT22;30969;51.052;17.056;2022-08-19T04:56:05;27.10;50.80
45233;DHT22;30969;51.052;17.056;2022-08-19T05:01:12;27.00;51.10
45233;DHT22;30969;51.052;17.056;2022-08-19T05:06:19;27.00;51.20
45233;DHT22;30969;51.052;17.056;2022-08-19T05:11:25;27.00;51.30
45233;DHT22;30969;51.052;17.056;2022-08-19T05:16:31;27.10;51.50
45233;DHT22;30969;51.052;17.056;2022-08-19T05:21:35;27.10;51.80
45233;DHT22;30969;51.052;17.056;2022-08-19T05:26:57;27.10;51.50
45233;DHT22;30969;51.052;17.056;2022-08-19T05:32:04;27.10;51.80
45233;DHT22;30969;51.052;17.056;2022-08-19T05:37:10;27.20;51.70
45233;DHT22;30969;51.052;17.056;2022-08-19T05:42:14;27.20;51.70
45233;DHT22;30969;51.052;17.056;2022-08-19T05:47:19;27.30;51.70
45233;DHT22;30969;51.052;17.056;2022-08-19T05:52:23;27.30;51.80
45233;DHT22;30969;51.052;17.056;2022-08-19T05:57:27;27.30;52.00
45233;DHT22;30969;51.052;17.056;2022-08-19T06:02:32;27.30;51.90
45233;DHT22;30969;51.052;17.056;2022-08-19T06:07:38;27.30;51.90
45233;DHT22;30969;51.052;17.056;2022-08-19T06:12:42;27.40;52.00
45233;DHT22;30969;51.052;17.056;2022-08-19T06:17:47;27.50;52.10
45233;DHT22;30969;51.052;17.056;2022-08-19T06:22:50;27.40;52.00
45233;DHT22;30969;51.052;17.056;2022-08-19T06:27:54;27.50;52.10
45233;DHT22;30969;51.052;17.056;2022-08-19T06:33:17;27.50;52.40
45233;DHT22;30969;51.052;17.056;2022-08-19T06:38:21;27.50;52.40
45233;DHT22;30969;51.052;17.056;2022-08-19T06:43:25;27.60;51.80
45233;DHT22;30969;51.052;17.056;2022-08-19T06:48:31;27.60;51.90
45233;DHT22;30969;51.052;17.056;2022-08-19T06:53:47;27.60;51.70
45233;DHT22;30969;51.052;17.056;2022-08-19T06:58:55;27.60;52.10
45233;DHT22;30969;51.052;17.056;2022-08-19T07:04:00;27.60;52.00
45233;DHT22;30969;51.052;17.056;2022-08-19T07:09:06;27.70;52.10
45233;DHT22;30969;51.052;17.056;2022-08-19T07:14:10;27.70;51.80
45233;DHT22;30969;51.052;17.056;2022-08-19T07:19:24;27.80;51.60
45233;DHT22;30969;51.052;17.056;2022-08-19T07:24:30;27.90;51.20
45233;DHT22;30969;51.052;17.056;2022-08-19T07:29:36;27.90;50.90
45233;DHT22;30969;51.052;17.056;2022-08-19T07:34:41;28.00;50.50
45233;DHT22;30969;51.052;17.056;2022-08-19T07:39:44;28.00;49.90
45233;DHT22;30969;51.052;17.056;2022-08-19T07:44:48;28.10;49.80
45233;DHT22;30969;51.052;17.056;2022-08-19T07:49:53;28.20;50.00
45233;DHT22;30969;51.052;17.056;2022-08-19T07:54:57;28.20;49.40
45233;DHT22;30969;51.052;17.056;2022-08-19T08:00:03;28.30;48.80
45233;DHT22;30969;51.052;17.056;2022-08-19T08:05:10;28.30;48.40
45233;DHT22;30969;51.052;17.056;2022-08-19T08:10:31;28.40;48.40
45233;DHT22;30969;51.052;17.056;2022-08-19T08:15:36;28.50;48.20
45233;DHT22;30969;51.052;17.056;2022-08-19T08:20:46;28.50;48.10
45233;DHT22;30969;51.052;17.056;2022-08-19T08:25:51;28.60;48.00
45233;DHT22;30969;51.052;17.056;2022-08-19T08:30:54;28.70;46.50
45233;DHT22;30969;51.052;17.056;2022-08-19T08:35:59;28.80;46.80
45233;DHT22;30969;51.052;17.056;2022-08-19T08:41:11;28.90;46.60
45233;DHT22;30969;51.052;17.056;2022-08-19T08:46:25;29.00;46.50
45233;DHT22;30969;51.052;17.056;2022-08-19T08:51:39;29.10;45.50
45233;DHT22;30969;51.052;17.056;2022-08-19T08:56:45;29.20;45.30
45233;DHT22;30969;51.052;17.056;2022-08-19T09:01:52;29.20;45.90
45233;DHT22;30969;51.052;17.056;2022-08-19T09:07:11;29.40;45.90
45233;DHT22;30969;51.052;17.056;2022-08-19T09:12:43;29.40;44.70
45233;DHT22;30969;51.052;17.056;2022-08-19T09:17:51;29.60;44.70
45233;DHT22;30969;51.052;17.056;2022-08-19T09:22:56;29.60;44.30
45233;DHT22;30969;51.052;17.056;2022-08-19T09:28:00;29.70;44.70
45233;DHT22;30969;51.052;17.056;2022-08-19T09:33:16;29.90;43.90
45233;DHT22;30969;51.052;17.056;2022-08-19T09:38:21;30.00;43.80
45233;DHT22;30969;51.052;17.056;2022-08-19T09:43:24;30.00;43.80
45233;DHT22;30969;51.052;17.056;2022-08-19T09:48:45;30.10;43.70
45233;DHT22;30969;51.052;17.056;2022-08-19T09:53:52;30.30;43.40
45233;DHT22;30969;51.052;17.056;2022-08-19T09:58:58;30.40;43.00
45233;DHT22;30969;51.052;17.056;2022-08-19T10:04:02;30.50;43.40
45233;DHT22;30969;51.052;17.056;2022-08-19T10:09:23;30.60;43.30
45233;DHT22;30969;51.052;17.056;2022-08-19T10:14:36;30.70;42.60
45233;DHT22;30969;51.052;17.056;2022-08-19T10:19:40;31.00;41.70
45233;DHT22;30969;51.052;17.056;2022-08-19T10:24:58;31.50;40.20
45233;DHT22;30969;51.052;17.056;2022-08-19T10:30:03;31.90;39.70
45233;DHT22;30969;51.052;17.056;2022-08-19T10:35:11;32.10;37.90
45233;DHT22;30969;51.052;17.056;2022-08-19T10:40:18;32.30;37.70
45233;DHT22;30969;51.052;17.056;2022-08-19T10:45:23;32.40;37.80
45233;DHT22;30969;51.052;17.056;2022-08-19T10:50:29;32.40;37.40
45233;DHT22;30969;51.052;17.056;2022-08-19T10:55:51;32.50;36.30
45233;DHT22;30969;51.052;17.056;2022-08-19T11:01:12;32.50;36.20
45233;DHT22;30969;51.052;17.056;2022-08-19T11:06:16;32.60;35.70
45233;DHT22;30969;51.052;17.056;2022-08-19T11:11:21;32.60;36.20
45233;DHT22;30969;51.052;17.056;2022-08-19T11:16:26;32.80;35.90
45233;DHT22;30969;51.052;17.056;2022-08-19T11:21:34;32.90;36.00
45233;DHT22;30969;51.052;17.056;2022-08-19T11:26:41;33.00;35.40
45233;DHT22;30969;51.052;17.056;2022-08-19T11:31:46;33.10;35.30
45233;DHT22;30969;51.052;17.056;2022-08-19T11:36:51;33.20;33.90
45233;DHT22;30969;51.052;17.056;2022-08-19T11:41:57;33.40;33.20
45233;DHT22;30969;51.052;17.056;2022-08-19T11:47:02;33.40;33.00
45233;DHT22;30969;51.052;17.056;2022-08-19T11:52:10;33.50;32.30
45233;DHT22;30969;51.052;17.056;2022-08-19T11:57:15;33.50;30.50
45233;DHT22;30969;51.052;17.056;2022-08-19T12:02:19;33.60;30.60
45233;DHT22;30969;51.052;17.056;2022-08-19T12:07:23;33.50;30.20
45233;DHT22;30969;51.052;17.056;2022-08-19T12:12:28;33.60;30.10
45233;DHT22;30969;51.052;17.056;2022-08-19T12:17:32;33.70;30.00
45233;DHT22;30969;51.052;17.056;2022-08-19T12:22:36;33.90;30.10
45233;DHT22;30969;51.052;17.056;2022-08-19T12:27:41;34.10;30.00
45233;DHT22;30969;51.052;17.056;2022-08-19T12:32:53;34.20;29.70
45233;DHT22;30969;51.052;17.056;2022-08-19T12:37:59;34.50;29.50
45233;DHT22;30969;51.052;17.056;2022-08-19T12:43:06;34.90;29.60
45233;DHT22;30969;51.052;17.056;2022-08-19T12:48:10;35.60;28.90
45233;DHT22;30969;51.052;17.056;2022-08-19T12:53:33;36.10;28.00
45233;DHT22;30969;51.052;17.056;2022-08-19T12:58:42;36.80;27.10
45233;DHT22;30969;51.052;17.056;2022-08-19T13:03:50;37.40;25.60
45233;DHT22;30969;51.052;17.056;2022-08-19T13:08:55;37.80;24.50
45233;DHT22;30969;51.052;17.056;2022-08-19T13:14:03;38.20;24.20
45233;DHT22;30969;51.052;17.056;2022-08-19T13:19:07;38.60;24.00
45233;DHT22;30969;51.052;17.056;2022-08-19T13:24:10;38.90;23.40
45233;DHT22;30969;51.052;17.056;2022-08-19T13:29:15;39.20;23.60
45233;DHT22;30969;51.052;17.056;2022-08-19T13:34:37;39.60;22.90
45233;DHT22;30969;51.052;17.056;2022-08-19T13:39:42;39.90;22.40
45233;DHT22;30969;51.052;17.056;2022-08-19T13:44:49;40.10;22.00
45233;DHT22;30969;51.052;17.056;2022-08-19T13:49:52;40.20;22.10
45233;DHT22;30969;51.052;17.056;2022-08-19T13:54:56;40.30;22.10
45233;DHT22;30969;51.052;17.056;2022-08-19T14:00:03;40.20;22.10
45233;DHT22;30969;51.052;17.056;2022-08-19T14:05:10;40.10;22.00
45233;DHT22;30969;51.052;17.056;2022-08-19T14:10:15;39.90;22.00
45233;DHT22;30969;51.052;17.056;2022-08-19T14:15:20;39.80;22.20
45233;DHT22;30969;51.052;17.056;2022-08-19T14:20:24;39.60;22.50
45233;DHT22;30969;51.052;17.056;2022-08-19T14:25:30;39.50;22.90
45233;DHT22;30969;51.052;17.056;2022-08-19T14:30:36;39.20;22.90
45233;DHT22;30969;51.052;17.056;2022-08-19T14:35:40;39.10;22.80
45233;DHT22;30969;51.052;17.056;2022-08-19T14:40:47;39.00;22.70
45233;DHT22;30969;51.052;17.056;2022-08-19T14:45:52;38.70;22.70
45233;DHT22;30969;51.052;17.056;2022-08-19T14:50:56;38.50;22.80
45233;DHT22;30969;51.052;17.056;2022-08-19T14:56:00;38.10;23.70
45233;DHT22;30969;51.052;17.056;2022-08-19T15:01:07;37.80;25.10
45233;DHT22;30969;51.052;17.056;2022-08-19T15:06:11;37.40;25.90
45233;DHT22;30969;51.052;17.056;2022-08-19T15:11:17;37.00;26.40
45233;DHT22;30969;51.052;17.056;2022-08-19T15:16:25;36.60;27.10
45233;DHT22;30969;51.052;17.056;2022-08-19T15:21:30;36.40;27.20
45233;DHT22;30969;51.052;17.056;2022-08-19T15:26:34;36.10;28.40
45233;DHT22;30969;51.052;17.056;2022-08-19T15:31:39;35.90;30.00
45233;DHT22;30969;51.052;17.056;2022-08-19T15:36:44;35.70;30.40
45233;DHT22;30969;51.052;17.056;2022-08-19T15:41:48;35.50;31.40
45233;DHT22;30969;51.052;17.056;2022-08-19T15:46:53;35.30;31.80
45233;DHT22;30969;51.052;17.056;2022-08-19T15:51:58;35.00;32.90
45233;DHT22;30969;51.052;17.056;2022-08-19T15:57:03;34.50;33.30
45233;DHT22;30969;51.052;17.056;2022-08-19T16:02:25;34.10;34.20
45233;DHT22;30969;51.052;17.056;2022-08-19T16:07:47;33.90;34.50
45233;DHT22;30969;51.052;17.056;2022-08-19T16:12:52;33.80;35.00
45233;DHT22;30969;51.052;17.056;2022-08-19T16:17:57;33.50;35.80
45233;DHT22;30969;51.052;17.056;2022-08-19T16:23:03;33.30;36.60
45233;DHT22;30969;51.052;17.056;2022-08-19T16:28:07;33.00;38.90
45233;DHT22;30969;51.052;17.056;2022-08-19T16:33:13;32.80;39.70
45233;DHT22;30969;51.052;17.056;2022-08-19T16:38:27;32.70;39.60
45233;DHT22;30969;51.052;17.056;2022-08-19T16:43:32;32.80;39.30
45233;DHT22;30969;51.052;17.056;2022-08-19T16:48:37;32.90;39.70
45233;DHT22;30969;51.052;17.056;2022-08-19T16:53:44;32.90;38.60
45233;DHT22;30969;51.052;17.056;2022-08-19T16:58:48;33.00;38.90
45233;DHT22;30969;51.052;17.056;2022-08-19T17:03:54;33.10;39.40
45233;DHT22;30969;51.052;17.056;2022-08-19T17:08:59;33.10;38.80
45233;DHT22;30969;51.052;17.056;2022-08-19T17:14:04;33.10;39.50
45233;DHT22;30969;51.052;17.056;2022-08-19T17:19:09;33.10;39.40
45233;DHT22;30969;51.052;17.056;2022-08-19T17:24:13;33.00;39.10
45233;DHT22;30969;51.052;17.056;2022-08-19T17:29:17;32.80;38.70
45233;DHT22;30969;51.052;17.056;2022-08-19T17:34:22;32.60;39.00
45233;DHT22;30969;51.052;17.056;2022-08-19T17:39:25;32.40;39.30
45233;DHT22;30969;51.052;17.056;2022-08-19T17:44:28;32.30;39.20
45233;DHT22;30969;51.052;17.056;2022-08-19T17:49:35;32.20;39.60
45233;DHT22;30969;51.052;17.056;2022-08-19T17:54:38;32.10;39.80
45233;DHT22;30969;51.052;17.056;2022-08-19T17:59:42;32.00;40.10
45233;DHT22;30969;51.052;17.056;2022-08-19T18:04:47;31.90;40.30
45233;DHT22;30969;51.052;17.056;2022-08-19T18:09:50;31.80;40.50
45233;DHT22;30969;51.052;17.056;2022-08-19T18:14:57;31.70;40.70
45233;DHT22;30969;51.052;17.056;2022-08-19T18:20:03;31.60;40.90
45233;DHT22;30969;51.052;17.056;2022-08-19T18:25:15;31.50;40.80
45233;DHT22;30969;51.052;17.056;2022-08-19T18:30:21;31.50;41.30
45233;DHT22;30969;51.052;17.056;2022-08-19T18:35:30;31.40;41.60
45233;DHT22;30969;51.052;17.056;2022-08-19T18:40:33;31.40;41.50
45233;DHT22;30969;51.052;17.056;2022-08-19T18:45:54;31.40;41.90
45233;DHT22;30969;51.052;17.056;2022-08-19T18:51:17;31.40;42.50
45233;DHT22;30969;51.052;17.056;2022-08-19T18:56:20;31.40;43.00
45233;DHT22;30969;51.052;17.056;2022-08-19T19:01:31;31.40;43.00
45233;DHT22;30969;51.052;17.056;2022-08-19T19:06:38;31.30;43.00
45233;DHT22;30969;51.052;17.056;2022-08-19T19:11:45;31.30;43.30
45233;DHT22;30969;51.052;17.056;2022-08-19T19:16:49;31.30;43.90
45233;DHT22;30969;51.052;17.056;2022-08-19T19:21:54;31.20;44.30
45233;DHT22;30969;51.052;17.056;2022-08-19T19:27:02;31.10;44.30
45233;DHT22;30969;51.052;17.056;2022-08-19T19:32:10;31.10;44.30
45233;DHT22;30969;51.052;17.056;2022-08-19T19:37:19;31.00;44.70
45233;DHT22;30969;51.052;17.056;2022-08-19T19:42:23;30.90;44.70
45233;DHT22;30969;51.052;17.056;2022-08-19T19:47:28;30.80;44.90
45233;DHT22;30969;51.052;17.056;2022-08-19T19:52:33;30.80;45.20
45233;DHT22;30969;51.052;17.056;2022-08-19T19:57:36;30.80;45.30
45233;DHT22;30969;51.052;17.056;2022-08-19T20:02:41;30.70;46.20
45233;DHT22;30969;51.052;17.056;2022-08-19T20:07:53;30.70;47.00
45233;DHT22;30969;51.052;17.056;2022-08-19T20:13:15;30.60;47.60
45233;DHT22;30969;51.052;17.056;2022-08-19T20:18:18;30.40;48.00
45233;DHT22;30969;51.052;17.056;2022-08-19T20:23:23;30.30;48.30
45233;DHT22;30969;51.052;17.056;2022-08-19T20:28:28;30.20;47.60
45233;DHT22;30969;51.052;17.056;2022-08-19T20:33:33;30.10;46.30
45233;DHT22;30969;51.052;17.056;2022-08-19T20:38:38;30.00;46.20
45233;DHT22;30969;51.052;17.056;2022-08-19T20:43:41;30.00;46.50
45233;DHT22;30969;51.052;17.056;2022-08-19T20:48:46;30.10;46.20
45233;DHT22;30969;51.052;17.056;2022-08-19T20:53:52;30.20;46.70
45233;DHT22;30969;51.052;17.056;2022-08-19T20:58:55;30.40;47.60
45233;DHT22;30969;51.052;17.056;2022-08-19T21:04:01;30.60;47.70
45233;DHT22;30969;51.052;17.056;2022-08-19T21:09:06;30.70;47.10
45233;DHT22;30969;51.052;17.056;2022-08-19T21:14:09;30.70;45.80
45233;DHT22;30969;51.052;17.056;2022-08-19T21:19:13;30.70;45.90
45233;DHT22;30969;51.052;17.056;2022-08-19T21:24:24;30.60;45.70
45233;DHT22;30969;51.052;17.056;2022-08-19T21:29:32;30.50;46.00
45233;DHT22;30969;51.052;17.056;2022-08-19T21:34:37;30.30;46.00
45233;DHT22;30969;51.052;17.056;2022-08-19T21:39:42;30.20;45.90
45233;DHT22;30969;51.052;17.056;2022-08-19T21:44:50;30.00;46.20
45233;DHT22;30969;51.052;17.056;2022-08-19T21:49:54;29.80;46.60
45233;DHT22;30969;51.052;17.056;2022-08-19T21:54:59;29.70;46.90
45233;DHT22;30969;51.052;17.056;2022-08-19T22:00:06;29.70;47.10
45233;DHT22;30969;51.052;17.056;2022-08-19T22:05:10;29.60;46.80
45233;DHT22;30969;51.052;17.056;2022-08-19T22:10:16;29.60;46.90
45233;DHT22;30969;51.052;17.056;2022-08-19T22:15:23;29.50;46.90
45233;DHT22;30969;51.052;17.056;2022-08-19T22:20:29;29.40;47.00
45233;DHT22;30969;51.052;17.056;2022-08-19T22:25:36;29.30;47.10
45233;DHT22;30969;51.052;17.056;2022-08-19T22:30:42;29.20;47.40
45233;DHT22;30969;51.052;17.056;2022-08-19T22:35:46;29.10;47.70
45233;DHT22;30969;51.052;17.056;2022-08-19T22:40:52;28.90;47.70
45233;DHT22;30969;51.052;17.056;2022-08-19T22:45:58;28.80;48.20
45233;DHT22;30969;51.052;17.056;2022-08-19T22:51:02;28.70;48.60
45233;DHT22;30969;51.052;17.056;2022-08-19T22:56:26;28.60;48.80
45233;DHT22;30969;51.052;17.056;2022-08-19T23:01:30;28.60;49.20
45233;DHT22;30969;51.052;17.056;2022-08-19T23:06:33;28.50;49.40
45233;DHT22;30969;51.052;17.056;2022-08-19T23:11:44;28.40;49.80
45233;DHT22;30969;51.052;17.056;2022-08-19T23:16:48;28.30;51.10
45233;DHT22;30969;51.052;17.056;2022-08-19T23:21:54;28.20;50.70
45233;DHT22;30969;51.052;17.056;2022-08-19T23:26:59;28.10;50.70
45233;DHT22;30969;51.052;17.056;2022-08-19T23:32:20;28.00;51.20
45233;DHT22;30969;51.052;17.056;2022-08-19T23:37:24;27.90;51.40
45233;DHT22;30969;51.052;17.056;2022-08-19T23:42:29;27.90;51.40
45233;DHT22;30969;51.052;17.056;2022-08-19T23:47:32;27.80;51.60
45233;DHT22;30969;51.052;17.056;2022-08-19T23:52:42;27.70;52.30
45233;DHT22;30969;51.052;17.056;2022-08-19T23:57:48;27.70;52.30
